createdAt,value
2018-06-14T00:01:33.916Z,8.8
2018-06-14T00:11:32.591Z,8.0
2018-06-14T00:31:29.292Z,7.8
2018-06-14T01:01:45.428Z,8.5
2018-06-14T01:11:32.618Z,9.6
2018-06-14T01:21:34.352Z,9.3
2018-06-14T01:41:31.259Z,8.9
2018-06-14T01:51:32.220Z,9.8
2018-06-14T02:01:31.543Z,10.3
2018-06-14T02:22:01.005Z,9.4
2018-06-14T02:31:32.340Z,9.9
2018-06-14T02:41:27.125Z,9.6
2018-06-14T02:51:30.233Z,9.5
2018-06-14T03:01:30.680Z,10.2
2018-06-14T03:11:26.610Z,10.4
2018-06-14T03:21:26.621Z,9.8
2018-06-14T03:31:32.612Z,9.1
2018-06-14T03:41:32.225Z,10.0
2018-06-14T03:51:31.111Z,10.2
2018-06-14T04:01:54.062Z,10.7
2018-06-14T04:11:32.901Z,10.7
2018-06-14T04:21:31.508Z,11.2
2018-06-14T04:41:27.646Z,10.8
2018-06-14T04:51:32.121Z,10.4
2018-06-14T05:01:26.937Z,10.7
2018-06-14T05:11:31.526Z,9.8
2018-06-14T05:21:26.541Z,11.3
2018-06-14T05:31:28.290Z,9.8
2018-06-14T05:41:26.028Z,10.9
2018-06-14T05:51:26.903Z,10.8
2018-06-14T06:01:32.461Z,10.0
2018-06-14T06:21:32.123Z,11.3
2018-06-14T06:31:32.072Z,9.9
2018-06-14T06:41:40.407Z,10.2
2018-06-14T06:51:31.865Z,10.4
2018-06-14T07:01:30.567Z,10.4
2018-06-14T07:11:31.255Z,11.1
2018-06-14T07:21:32.332Z,10.0
2018-06-14T07:31:30.776Z,10.1
2018-06-14T07:41:27.667Z,10.2
2018-06-14T07:51:26.502Z,9.2
2018-06-14T08:01:26.053Z,9.8
2018-06-14T08:11:26.081Z,10.0
2018-06-14T08:21:27.767Z,9.1
2018-06-14T08:31:25.789Z,7.8
2018-06-14T08:41:26.660Z,7.7
2018-06-14T08:51:27.065Z,8.1
2018-06-14T09:01:27.128Z,6.8
2018-06-14T09:11:24.931Z,8.0
2018-06-14T09:21:26.867Z,6.0
2018-06-14T09:31:28.341Z,6.2
2018-06-14T09:41:24.981Z,5.9
2018-06-14T09:51:26.798Z,5.6
2018-06-14T10:01:27.737Z,4.9
2018-06-14T10:11:25.542Z,5.7
2018-06-14T10:21:25.660Z,4.9
2018-06-14T10:31:25.742Z,5.4
2018-06-14T10:41:26.389Z,5.2
2018-06-14T10:51:27.317Z,5.8
2018-06-14T11:01:25.505Z,4.9
2018-06-14T11:11:26.093Z,6.1
2018-06-14T11:21:28.122Z,7.3
2018-06-14T11:31:27.923Z,6.7
2018-06-14T11:41:24.864Z,7.6
2018-06-14T11:51:25.700Z,7.9
2018-06-14T12:01:25.588Z,6.9
2018-06-14T12:11:25.374Z,6.7
2018-06-14T12:21:25.396Z,5.9
2018-06-14T12:31:25.629Z,5.5
2018-06-14T12:41:27.832Z,5.4
2018-06-14T12:51:25.681Z,5.1
2018-06-14T13:01:25.827Z,6.1
2018-06-14T13:11:26.156Z,5.4
2018-06-14T13:21:28.361Z,5.5
2018-06-14T13:31:32.457Z,5.2
2018-06-14T13:41:30.872Z,5.2
2018-06-14T13:51:31.502Z,5.4
2018-06-14T14:01:31.122Z,4.6
2018-06-14T14:11:25.455Z,4.2
2018-06-14T14:21:32.771Z,3.7
2018-06-14T14:31:31.705Z,4.0
2018-06-14T17:31:32.212Z,5.1
2018-06-14T17:41:25.834Z,5.4
2018-06-14T17:51:25.562Z,5.9
2018-06-14T18:01:27.528Z,5.6
2018-06-14T18:11:25.728Z,6.5
2018-06-14T18:21:26.483Z,6.9
2018-06-14T18:31:25.628Z,6.2
2018-06-14T18:41:26.395Z,5.5
2018-06-14T18:51:26.983Z,5.4
2018-06-14T19:01:26.232Z,4.7
2018-06-14T19:11:25.494Z,4.8
2018-06-14T19:21:25.644Z,4.9
2018-06-14T19:31:27.249Z,4.5
2018-06-14T19:41:26.539Z,4.5
2018-06-14T19:51:31.922Z,5.2
2018-06-14T20:01:26.850Z,4.1
2018-06-14T20:11:27.082Z,4.7
2018-06-14T20:21:26.017Z,4.9
2018-06-14T20:31:25.063Z,4.8
2018-06-14T20:41:26.118Z,5.4
2018-06-14T20:51:25.759Z,5.0
2018-06-14T21:01:28.050Z,5.4
2018-06-14T21:11:26.207Z,4.8
2018-06-14T21:21:25.586Z,5.2
2018-06-14T21:31:26.830Z,5.1
2018-06-14T21:41:26.261Z,4.9
2018-06-14T21:51:26.053Z,4.5
2018-06-14T22:01:25.962Z,5.0
2018-06-14T22:11:26.411Z,4.7
2018-06-14T22:21:27.207Z,4.6
2018-06-14T22:31:25.596Z,4.4
2018-06-14T22:41:29.461Z,4.5
2018-06-14T22:51:24.816Z,4.8
2018-06-14T23:01:26.445Z,4.2
2018-06-14T23:11:25.530Z,4.3
2018-06-14T23:21:26.988Z,3.6
2018-06-14T23:31:26.766Z,3.4
2018-06-14T23:41:28.395Z,3.8
2018-06-14T23:51:26.896Z,4.1
